Latest Weather Observations for Cocos Island

IDW60801

Issued at 11:03 am WST Monday 18 November 2019 (issued every 10 minutes, with the page automatically refreshed every 10 minutes)

About weather observations | Map of weather stations | Latest weather observations for WA | Other Formats
Station Details ID: 200284 Name: COCOS ISLAND AIRPORT Lat: -12.19 Lon: 96.83 Height: 3.0 m
Data from the previous 72 hours. | See also: Recent months at Cocos Island
Date/Time
WST
Temp
°C
App
Temp
°C
Dew
Point
°C
Rel
Hum
%
Delta-T
°C
Wind Press
QNH
hPa
Press
MSL
hPa
Rain since
9am
mm
Dir  Spd
km/h
Gust
km/h
Spd
kts
Gust
kts
18/11:00am 27.2 25.8 21.9 73 3.5 SE 32 39 17 21 1016.0 1016.0 0.0
18/10:30am 26.8 25.0 21.6 73 3.5 SE 33 43 18 23 1016.2 1016.2 0.0
18/10:00am 26.8 25.2 21.6 73 3.5 SE 32 43 17 23 1016.0 1016.0 0.0
18/09:30am 26.6 24.5 20.9 71 3.8 SE 33 43 18 23 1015.9 1015.9 0.0
18/09:00am 26.3 24.3 21.1 73 3.4 SE 33 41 18 22 1015.7 1015.7 0.0
18/08:30am 26.0 24.5 21.0 74 3.3 SE 30 43 16 23 1015.5 1015.5 0.0
18/08:00am 25.8 23.8 20.8 74 3.3 SE 32 39 17 21 1015.4 1015.4 0.0
18/07:30am 25.5 23.2 20.5 74 3.3 SE 33 41 18 22 1015.1 1015.1 0.0
18/07:00am 25.4 24.9 21.5 79 2.6 ESE 26 35 14 19 1014.9 1014.9 0.0
18/06:30am 25.3 24.5 21.6 80 2.5 SE 28 35 15 19 1014.7 1014.7 0.0
18/06:00am 25.5 24.0 21.0 76 3.0 SE 30 37 16 20 1014.7 1014.7 0.0
18/05:30am 25.4 23.7 21.3 78 2.7 SE 32 39 17 21 1014.7 1014.7 0.0
18/05:00am 25.4 23.8 21.5 79 2.6 SE 32 41 17 22 1014.5 1014.5 0.0
18/04:30am 25.4 23.7 21.3 78 2.7 SE 32 37 17 20 1014.5 1014.5 0.0
18/04:00am 25.5 23.9 21.6 79 2.6 SE 32 43 17 23 1014.4 1014.4 0.0
18/03:30am 25.5 23.6 21.4 78 2.7 SE 33 43 18 23 1014.5 1014.5 0.0
18/03:00am 25.5 23.9 21.8 80 2.5 SE 33 41 18 22 1014.6 1014.6 0.0
18/02:30am 25.5 23.7 21.6 79 2.6 SE 33 43 18 23 1014.7 1014.7 0.0
18/02:00am 25.5 24.6 22.2 82 2.2 SE 30 37 16 20 1014.9 1014.9 0.0
18/01:30am 25.5 25.0 22.2 82 2.2 SE 28 35 15 19 1014.9 1014.9 0.0
18/01:00am 25.6 24.3 22.1 81 2.3 SE 32 41 17 22 1015.0 1015.0 0.0
18/12:30am 25.8 25.1 22.5 82 2.2 SE 30 35 16 19 1015.0 1015.0 0.0
18/12:00am 25.8 24.5 22.1 80 2.5 SE 32 43 17 23 1015.4 1015.4 0.0
 
Date/Time
WST
Temp
°C
App
Temp
°C
Dew
Point
°C
Rel
Hum
%
Delta-T
°C
Wind Press
QNH
hPa
Press
MSL
hPa
Rain since
9am
mm
Dir  Spd
km/h
Gust
km/h
Spd
kts
Gust
kts
17/11:30pm 25.9 24.3 21.8 78 2.7 SE 33 41 18 22 1015.4 1015.4 0.0
17/11:00pm 26.0 25.2 22.3 80 2.5 SE 30 41 16 22 1015.4 1015.4 0.0
17/10:30pm 26.1 23.6 21.7 77 2.9 SE 37 46 20 25 1015.3 1015.3 0.0
17/10:00pm 26.2 24.5 22.5 80 2.5 SE 35 48 19 26 1015.1 1015.1 0.0
17/09:30pm 26.2 24.4 22.3 79 2.6 SE 35 46 19 25 1015.0 1015.0 0.0
17/09:00pm 26.2 24.2 21.8 77 2.9 SE 35 44 19 24 1014.6 1014.6 0.0
17/08:30pm 26.3 24.7 22.6 80 2.5 SE 35 44 19 24 1014.3 1014.3 0.0
17/08:00pm 26.3 25.1 22.6 80 2.5 SE 33 43 18 23 1014.0 1014.0 0.0
17/07:30pm 26.5 25.4 22.8 80 2.5 SE 33 43 18 23 1013.8 1013.8 0.0
17/07:00pm 26.7 25.6 22.8 79 2.6 SE 33 41 18 22 1013.6 1013.6 0.0
17/06:30pm 26.9 24.8 22.3 76 3.1 SE 37 44 20 24 1013.5 1013.5 0.0
17/06:00pm 27.0 25.8 22.6 77 3.0 SE 33 44 18 24 1013.4 1013.4 0.0
17/05:30pm 27.5 25.4 22.4 73 3.4 SE 37 46 20 25 1013.2 1013.2 0.0
17/05:00pm 27.5 26.6 23.1 77 3.0 SE 33 44 18 24 1013.2 1013.2 0.0
17/04:30pm 28.4 27.8 23.3 74 3.5 SE 32 41 17 22 1013.4 1013.4 0.0
17/04:00pm 28.5 27.8 23.2 73 3.6 SE 32 41 17 22 1013.5 1013.5 0.0
17/03:30pm 27.9 26.7 22.6 73 3.6 SE 33 41 18 22 1013.9 1013.9 0.0
17/03:00pm 27.9 26.2 22.4 72 3.7 SE 35 46 19 25 1014.1 1014.1 0.0
17/02:30pm 27.6 25.6 21.9 71 3.8 SE 35 44 19 24 1014.3 1014.3 0.0
17/02:00pm 27.8 26.0 22.3 72 3.7 SE 35 43 19 23 1014.6 1014.6 0.0
17/01:30pm 27.9 26.6 22.4 72 3.7 SE 33 43 18 23 1015.1 1015.1 0.0
17/01:00pm 27.8 26.4 22.3 72 3.7 SE 33 41 18 22 1015.4 1015.4 0.0
17/12:30pm 27.7 26.1 22.6 74 3.5 SE 35 44 19 24 1015.6 1015.6 0.0
17/12:00pm 27.4 25.7 21.7 71 3.8 SE 33 46 18 25 1015.5 1015.5 0.0
17/11:30am 27.3 26.3 22.7 76 3.1 SE 32 41 17 22 1015.6 1015.6 0.0
17/11:00am 27.4 27.0 22.4 74 3.4 SE 28 37 15 20 1015.4 1015.4 0.0
17/10:30am 27.0 25.8 22.2 75 3.2 SE 32 41 17 22 1015.6 1015.6 0.0
17/10:00am 26.7 26.3 22.3 77 3.0 SE 28 35 15 19 1015.5 1015.5 0.0
17/09:30am 26.6 25.6 22.0 76 3.1 SE 30 35 16 19 1015.5 1015.5 0.0
17/09:00am 26.3 25.7 21.9 77 2.9 SE 28 41 15 22 1015.3 1015.3 0.0
17/08:30am 26.2 25.9 21.8 77 2.9 ESE 26 35 14 19 1015.0 1015.0 0.0
17/08:00am 25.8 25.9 21.9 79 2.6 ESE 24 33 13 18 1014.7 1014.7 0.0
17/07:30am 25.4 25.0 21.7 80 2.5 ESE 26 33 14 18 1014.4 1014.4 0.0
17/07:00am 25.3 25.3 21.6 80 2.5 ESE 24 35 13 19 1014.2 1014.2 0.0
17/06:30am 25.2 24.7 21.5 80 2.5 ESE 26 33 14 18 1014.1 1014.1 0.0
17/06:00am 25.3 25.3 21.6 80 2.5 ESE 24 33 13 18 1014.1 1014.1 0.0
17/05:30am 25.3 25.4 21.8 81 2.3 ESE 24 35 13 19 1014.2 1014.2 0.0
17/05:00am 25.2 26.5 21.7 81 2.3 ESE 17 28 9 15 1014.2 1014.2 0.0
17/04:30am 25.4 25.6 22.1 82 2.2 ESE 24 32 13 17 1014.1 1014.1 0.0
17/04:00am 25.4 25.7 21.5 79 2.6 ESE 22 32 12 17 1014.1 1014.1 0.0
17/03:30am 25.6 25.0 21.9 80 2.5 SE 28 33 15 18 1014.3 1014.3 0.0
17/03:00am 25.6 25.8 22.1 81 2.3 ESE 24 33 13 18 1014.4 1014.4 0.0
17/02:30am 25.6 26.4 21.7 79 2.6 ESE 20 32 11 17 1014.7 1014.7 0.0
17/02:00am 25.8 27.0 22.5 82 2.2 ESE 20 35 11 19 1015.1 1015.1 0.0
17/01:30am 25.8 26.9 22.3 81 2.3 ESE 20 33 11 18 1015.2 1015.2 0.0
17/01:00am 25.9 26.6 22.2 80 2.5 ESE 22 33 12 18 1015.4 1015.4 0.0
17/12:30am 26.1 27.1 22.2 79 2.6 ESE 20 33 11 18 1015.7 1015.7 0.0
17/12:00am 26.1 27.4 22.4 80 2.5 ESE 19 28 10 15 1015.9 1015.9 0.0
 
Date/Time
WST
Temp
°C
App
Temp
°C
Dew
Point
°C
Rel
Hum
%
Delta-T
°C
Wind Press
QNH
hPa
Press
MSL
hPa
Rain since
9am
mm
Dir  Spd
km/h
Gust
km/h
Spd
kts
Gust
kts
16/11:30pm 26.1 27.2 22.0 78 2.7 ESE 19 30 10 16 1016.1 1016.1 0.0
16/11:00pm 26.1 27.2 22.4 80 2.5 ESE 20 33 11 18 1015.9 1015.9 0.0
16/10:30pm 26.1 27.3 22.2 79 2.6 ESE 19 30 10 16 1015.6 1015.6 0.0
16/10:00pm 26.2 27.5 22.3 79 2.6 ESE 19 30 10 16 1015.2 1015.2 0.0
16/09:30pm 26.2 27.3 22.3 79 2.6 ESE 20 30 11 16 1015.2 1015.2 0.0
16/09:00pm 26.3 27.4 22.4 79 2.6 ESE 20 37 11 20 1014.8 1014.8 0.0
16/08:30pm 26.3 26.6 22.2 78 2.8 ESE 24 33 13 18 1014.2 1014.2 0.0
16/08:00pm 26.3 27.1 22.4 79 2.6 ESE 22 33 12 18 1013.8 1013.8 0.0
16/07:30pm 26.4 25.8 22.0 77 2.9 ESE 28 39 15 21 1013.4 1013.4 0.0
16/07:00pm 26.6 26.4 22.0 76 3.1 ESE 26 37 14 20 1013.1 1013.1 0.0
16/06:30pm 27.2 26.9 22.6 76 3.1 ESE 28 41 15 22 1012.8 1012.8 0.0
16/06:00pm 27.5 28.2 22.9 76 3.1 ESE 24 37 13 20 1012.7 1012.7 0.0
16/05:30pm 27.3 27.6 22.3 74 3.4 ESE 24 37 13 20 1012.7 1012.7 0.0
16/05:00pm 27.9 27.3 21.9 70 4.0 ESE 28 37 15 20 1012.7 1012.7 0.0
16/04:30pm 28.2 28.5 22.9 73 3.6 ESE 26 35 14 19 1012.9 1012.9 0.0
16/04:00pm 28.5 28.7 22.7 71 3.9 ESE 26 37 14 20 1013.1 1013.1 0.0
16/03:30pm 28.7 29.8 23.6 74 3.5 ESE 24 37 13 20 1013.2 1013.2 0.0
16/03:00pm 28.4 28.5 23.3 74 3.5 ESE 28 39 15 21 1013.5 1013.5 0.0
16/02:30pm 27.8 27.1 22.5 73 3.6 SE 30 39 16 21 1013.9 1013.9 0.0
16/02:00pm 28.6 28.4 22.8 71 3.9 ESE 28 37 15 20 1014.3 1014.3 0.0
16/01:30pm 27.9 27.1 22.4 72 3.7 SE 30 37 16 20 1014.5 1014.5 0.0
16/01:00pm 28.7 29.1 23.1 71 3.8 ESE 26 35 14 19 1014.9 1014.9 0.0
16/12:30pm 28.1 28.3 22.1 70 4.0 ESE 24 33 13 18 1015.3 1015.3 0.0
16/12:00pm 27.6 27.2 22.3 73 3.6 ESE 28 37 15 20 1015.4 1015.4 0.0
16/11:30am 27.9 28.6 22.2 71 3.8 ESE 22 35 12 19 1015.5 1015.5 0.0
16/11:00am 28.1 28.2 22.6 72 3.7 SE 26 33 14 18 1015.8 1015.8 -
16/10:30am 27.3 27.1 22.0 73 3.6 SE 26 35 14 19 1015.9 1015.9 -
16/10:00am 27.1 26.9 22.1 74 3.4 SE 26 33 14 18 1015.9 1015.9 -
16/09:30am 26.8 27.0 22.0 75 3.2 SE 24 30 13 16 1015.9 1015.9 -
16/09:00am 26.6 26.6 21.6 74 3.3 SE 24 32 13 17 1015.5 1015.5 -
16/08:30am 26.3 27.2 21.9 77 2.9 SE 20 28 11 15 1015.2 1015.2 -
16/08:00am 25.9 26.2 21.6 77 2.9 ESE 22 28 12 15 1014.8 1014.8 -
16/07:30am 25.6 27.0 21.9 80 2.5 ESE 17 24 9 13 1014.3 1014.3 -
16/07:00am 25.4 25.9 21.9 81 2.3 SE 22 28 12 15 1014.1 1014.1 -
16/06:30am 25.4 25.4 21.7 80 2.5 SE 24 28 13 15 1013.8 1013.8 -
16/06:00am 25.4 26.4 22.1 82 2.2 ESE 20 30 11 16 1013.5 1013.5 -
16/05:30am 25.5 26.5 22.2 82 2.2 ESE 20 28 11 15 1013.4 1013.4 -
16/05:00am 25.4 27.1 22.3 83 2.1 ESE 17 26 9 14 1013.2 1013.2 0.0
16/04:30am 25.4 27.2 22.5 84 1.9 ESE 17 26 9 14 1013.0 1013.0 -
16/04:00am 25.5 27.2 22.4 83 2.1 ESE 17 22 9 12 1013.1 1013.1 -
16/03:30am 25.7 27.9 22.6 83 2.1 ESE 15 24 8 13 1013.5 1013.5 -
16/03:00am 25.8 27.7 22.7 83 2.1 ESE 17 24 9 13 1013.5 1013.5 -
16/02:30am 25.8 27.6 22.5 82 2.2 ESE 17 26 9 14 1013.8 1013.8 -
16/02:00am 26.0 27.8 22.5 81 2.4 ESE 17 24 9 13 1014.0 1014.0 -
16/01:30am 26.1 27.9 22.6 81 2.4 ESE 17 26 9 14 1014.2 1014.2 -
16/01:00am 26.1 27.9 22.6 81 2.4 ESE 17 24 9 13 1014.3 1014.3 -
16/12:30am 26.2 27.5 22.7 81 2.4 ESE 20 30 11 16 1014.5 1014.5 -
16/12:00am 26.2 27.7 22.7 81 2.4 ESE 19 30 10 16 1014.4 1014.4 -
 
Date/Time
WST
Temp
°C
App
Temp
°C
Dew
Point
°C
Rel
Hum
%
Delta-T
°C
Wind Press
QNH
hPa
Press
MSL
hPa
Rain since
9am
mm
Dir  Spd
km/h
Gust
km/h
Spd
kts
Gust
kts
15/11:30pm 26.3 27.3 22.8 81 2.4 ESE 22 33 12 18 1014.3 1014.3 -
15/11:00pm 26.4 28.3 22.7 80 2.5 ESE 17 28 9 15 1014.2 1014.2 0.0
15/10:30pm 26.4 27.4 22.9 81 2.4 ESE 22 35 12 19 1014.0 1014.0 -
15/10:00pm 26.3 27.3 22.8 81 2.4 ESE 22 32 12 17 1013.8 1013.8 -
15/09:30pm 26.4 27.8 22.9 81 2.4 ESE 20 32 11 17 1013.8 1013.8 -
15/09:00pm 26.4 27.7 22.7 80 2.5 ESE 20 32 11 17 1013.7 1013.7 -
15/08:30pm 26.5 27.5 22.8 80 2.5 ESE 22 33 12 18 1013.4 1013.4 -
15/08:00pm 26.6 28.1 23.1 81 2.4 ESE 20 32 11 17 1013.1 1013.1 -
15/07:30pm 26.7 28.3 23.2 81 2.4 ESE 20 33 11 18 1012.8 1012.8 -
15/07:00pm 26.8 28.4 22.8 79 2.7 ESE 19 30 10 16 1012.5 1012.5 -
15/06:30pm 26.9 26.8 22.9 79 2.7 ESE 28 39 15 21 1012.2 1012.2 -
15/06:00pm 27.6 28.4 23.2 77 3.0 ESE 24 37 13 20 1011.9 1011.9 -
15/05:30pm 27.4 27.4 23.0 77 3.0 ESE 28 37 15 20 1011.7 1011.7 -
15/05:00pm 27.6 27.4 22.8 75 3.3 SE 28 37 15 20 1011.7 1011.7 -
15/04:30pm 27.6 27.1 22.8 75 3.3 SE 30 37 16 20 1011.9 1011.9 -
15/04:00pm 27.6 26.5 22.5 74 3.4 SE 32 39 17 21 1012.2 1012.2 -
15/03:30pm 27.7 26.9 22.4 73 3.6 SE 30 39 16 21 1012.5 1012.5 -
15/03:00pm 27.6 27.6 23.0 76 3.1 SE 28 35 15 19 1012.8 1012.8 -
15/02:30pm 28.3 27.5 23.0 73 3.6 SE 32 39 17 21 1013.0 1013.0 0.0
15/02:00pm 28.5 28.1 23.0 72 3.8 SE 30 37 16 20 1013.4 1013.4 0.0
15/01:30pm 28.5 28.5 23.0 72 3.8 SE 28 35 15 19 1013.4 1013.8 0.0
15/01:00pm 28.5 28.6 23.2 73 3.6 SE 28 35 15 19 1014.0 1014.0 0.0

Other formats

Comma delimited format used in spreadsheet applications
http://www.bom.gov.au/fwo/IDW60801/IDW60801.96996.axf

JavaScript Object Notation format (JSON) in row-major order
http://www.bom.gov.au/fwo/IDW60801/IDW60801.96996.json

Data quality

Most of these data are generated automatically and are frequently updated. Quality checks on data are not normally performed. It is possible for incorrect values to appear. Refer to information at About Latest Weather Observations and please check the disclaimer before using these data.